sensor_id;sensor_type;location;lat;lon;timestamp;P1;durP1;ratioP1;P2;durP2;ratioP2
37647;SDS011;23490;53.656;10.076;2022-12-07T00:01:21;20.10;;;11.13;;
37647;SDS011;23490;53.656;10.076;2022-12-07T00:03:49;20.30;;;11.20;;
37647;SDS011;23490;53.656;10.076;2022-12-07T00:06:16;16.40;;;10.00;;
37647;SDS011;23490;53.656;10.076;2022-12-07T00:08:43;19.80;;;10.02;;
37647;SDS011;23490;53.656;10.076;2022-12-07T00:11:16;20.25;;;10.82;;
37647;SDS011;23490;53.656;10.076;2022-12-07T00:13:43;19.88;;;10.73;;
37647;SDS011;23490;53.656;10.076;2022-12-07T00:16:16;19.20;;;10.10;;
37647;SDS011;23490;53.656;10.076;2022-12-07T00:18:43;21.73;;;10.73;;
37647;SDS011;23490;53.656;10.076;2022-12-07T00:21:11;20.58;;;11.45;;
37647;SDS011;23490;53.656;10.076;2022-12-07T00:23:38;22.77;;;11.23;;
37647;SDS011;23490;53.656;10.076;2022-12-07T00:26:05;19.10;;;11.68;;
37647;SDS011;23490;53.656;10.076;2022-12-07T00:28:32;20.52;;;11.52;;
37647;SDS011;23490;53.656;10.076;2022-12-07T00:31:05;22.35;;;11.98;;
37647;SDS011;23490;53.656;10.076;2022-12-07T00:33:33;19.02;;;10.88;;
37647;SDS011;23490;53.656;10.076;2022-12-07T00:35:59;23.60;;;12.40;;
37647;SDS011;23490;53.656;10.076;2022-12-07T00:38:27;27.17;;;14.30;;
37647;SDS011;23490;53.656;10.076;2022-12-07T00:40:58;23.83;;;12.82;;
37647;SDS011;23490;53.656;10.076;2022-12-07T00:45:50;22.80;;;12.35;;
37647;SDS011;23490;53.656;10.076;2022-12-07T00:48:16;23.55;;;12.18;;
37647;SDS011;23490;53.656;10.076;2022-12-07T00:50:41;24.48;;;11.93;;
37647;SDS011;23490;53.656;10.076;2022-12-07T00:53:07;23.52;;;12.48;;
37647;SDS011;23490;53.656;10.076;2022-12-07T00:55:33;22.08;;;11.52;;
37647;SDS011;23490;53.656;10.076;2022-12-07T00:57:58;23.63;;;12.57;;
37647;SDS011;23490;53.656;10.076;2022-12-07T01:00:24;24.50;;;12.15;;
37647;SDS011;23490;53.656;10.076;2022-12-07T01:02:49;23.52;;;12.18;;
37647;SDS011;23490;53.656;10.076;2022-12-07T01:05:14;20.45;;;11.30;;
37647;SDS011;23490;53.656;10.076;2022-12-07T01:07:40;25.35;;;12.88;;
37647;SDS011;23490;53.656;10.076;2022-12-07T01:10:05;22.05;;;11.13;;
37647;SDS011;23490;53.656;10.076;2022-12-07T01:12:31;21.02;;;11.13;;
37647;SDS011;23490;53.656;10.076;2022-12-07T01:14:56;19.15;;;10.65;;
37647;SDS011;23490;53.656;10.076;2022-12-07T01:17:22;23.33;;;11.50;;
37647;SDS011;23490;53.656;10.076;2022-12-07T01:19:47;26.25;;;10.32;;
37647;SDS011;23490;53.656;10.076;2022-12-07T01:22:12;18.88;;;10.40;;
37647;SDS011;23490;53.656;10.076;2022-12-07T01:24:38;19.83;;;9.73;;
37647;SDS011;23490;53.656;10.076;2022-12-07T01:27:03;17.75;;;9.40;;
37647;SDS011;23490;53.656;10.076;2022-12-07T01:29:29;19.25;;;9.82;;
37647;SDS011;23490;53.656;10.076;2022-12-07T01:31:54;17.25;;;9.73;;
37647;SDS011;23490;53.656;10.076;2022-12-07T01:34:19;21.15;;;8.20;;
37647;SDS011;23490;53.656;10.076;2022-12-07T01:36:45;20.17;;;9.27;;
37647;SDS011;23490;53.656;10.076;2022-12-07T01:39:10;16.73;;;8.93;;
37647;SDS011;23490;53.656;10.076;2022-12-07T01:41:37;21.50;;;9.38;;
37647;SDS011;23490;53.656;10.076;2022-12-07T01:46:40;17.80;;;8.38;;
37647;SDS011;23490;53.656;10.076;2022-12-07T01:49:08;15.85;;;8.35;;
37647;SDS011;23490;53.656;10.076;2022-12-07T01:51:39;19.30;;;8.95;;
37647;SDS011;23490;53.656;10.076;2022-12-07T01:54:06;14.15;;;7.57;;
37647;SDS011;23490;53.656;10.076;2022-12-07T01:56:33;19.63;;;8.13;;
37647;SDS011;23490;53.656;10.076;2022-12-07T01:58:58;20.60;;;8.30;;
37647;SDS011;23490;53.656;10.076;2022-12-07T02:01:25;15.90;;;8.07;;
37647;SDS011;23490;53.656;10.076;2022-12-07T02:03:51;17.85;;;8.73;;
37647;SDS011;23490;53.656;10.076;2022-12-07T02:06:19;14.07;;;7.80;;
37647;SDS011;23490;53.656;10.076;2022-12-07T02:08:48;16.98;;;7.65;;
37647;SDS011;23490;53.656;10.076;2022-12-07T02:11:13;16.38;;;7.72;;
37647;SDS011;23490;53.656;10.076;2022-12-07T02:13:40;19.02;;;7.28;;
37647;SDS011;23490;53.656;10.076;2022-12-07T02:21:53;15.57;;;7.22;;
37647;SDS011;23490;53.656;10.076;2022-12-07T02:27:46;11.88;;;6.18;;
37647;SDS011;23490;53.656;10.076;2022-12-07T02:30:15;13.65;;;6.20;;
37647;SDS011;23490;53.656;10.076;2022-12-07T02:35:40;15.27;;;5.82;;
37647;SDS011;23490;53.656;10.076;2022-12-07T02:38:29;11.27;;;5.72;;
37647;SDS011;23490;53.656;10.076;2022-12-07T02:41:13;13.52;;;5.57;;
37647;SDS011;23490;53.656;10.076;2022-12-07T02:43:50;12.85;;;5.43;;
37647;SDS011;23490;53.656;10.076;2022-12-07T02:46:27;9.90;;;4.75;;
37647;SDS011;23490;53.656;10.076;2022-12-07T02:48:56;17.67;;;5.95;;
37647;SDS011;23490;53.656;10.076;2022-12-07T02:51:24;8.02;;;4.38;;
37647;SDS011;23490;53.656;10.076;2022-12-07T02:53:49;11.07;;;4.47;;
37647;SDS011;23490;53.656;10.076;2022-12-07T02:56:23;14.23;;;4.40;;
37647;SDS011;23490;53.656;10.076;2022-12-07T03:09:59;7.85;;;4.07;;
37647;SDS011;23490;53.656;10.076;2022-12-07T03:12:36;8.02;;;3.17;;
37647;SDS011;23490;53.656;10.076;2022-12-07T03:15:22;9.20;;;3.42;;
37647;SDS011;23490;53.656;10.076;2022-12-07T03:18:00;5.93;;;3.25;;
37647;SDS011;23490;53.656;10.076;2022-12-07T03:20:29;7.85;;;3.03;;
37647;SDS011;23490;53.656;10.076;2022-12-07T03:22:57;8.60;;;3.80;;
37647;SDS011;23490;53.656;10.076;2022-12-07T03:25:24;6.13;;;2.30;;
37647;SDS011;23490;53.656;10.076;2022-12-07T03:27:53;6.80;;;2.63;;
37647;SDS011;23490;53.656;10.076;2022-12-07T03:30:24;5.53;;;2.35;;
37647;SDS011;23490;53.656;10.076;2022-12-07T03:33:00;5.38;;;2.30;;
37647;SDS011;23490;53.656;10.076;2022-12-07T03:35:34;5.68;;;2.70;;
37647;SDS011;23490;53.656;10.076;2022-12-07T03:38:16;5.85;;;2.42;;
37647;SDS011;23490;53.656;10.076;2022-12-07T03:43:19;7.35;;;2.00;;
37647;SDS011;23490;53.656;10.076;2022-12-07T03:45:50;6.65;;;1.88;;
37647;SDS011;23490;53.656;10.076;2022-12-07T03:53:39;4.90;;;1.67;;
37647;SDS011;23490;53.656;10.076;2022-12-07T03:56:10;5.40;;;1.70;;
37647;SDS011;23490;53.656;10.076;2022-12-07T03:58:36;4.18;;;1.60;;
37647;SDS011;23490;53.656;10.076;2022-12-07T04:01:02;5.47;;;1.70;;
37647;SDS011;23490;53.656;10.076;2022-12-07T04:03:28;9.48;;;2.13;;
37647;SDS011;23490;53.656;10.076;2022-12-07T04:05:53;6.95;;;1.95;;
37647;SDS011;23490;53.656;10.076;2022-12-07T04:08:19;5.78;;;1.60;;
37647;SDS011;23490;53.656;10.076;2022-12-07T04:10:44;4.15;;;1.77;;
37647;SDS011;23490;53.656;10.076;2022-12-07T04:13:10;5.75;;;1.67;;
37647;SDS011;23490;53.656;10.076;2022-12-07T04:15:35;3.45;;;1.58;;
37647;SDS011;23490;53.656;10.076;2022-12-07T04:18:00;9.98;;;1.80;;
37647;SDS011;23490;53.656;10.076;2022-12-07T04:20:26;2.78;;;1.65;;
37647;SDS011;23490;53.656;10.076;2022-12-07T04:22:52;3.22;;;1.70;;
37647;SDS011;23490;53.656;10.076;2022-12-07T04:25:17;6.72;;;1.95;;
37647;SDS011;23490;53.656;10.076;2022-12-07T04:27:42;4.57;;;1.60;;
37647;SDS011;23490;53.656;10.076;2022-12-07T04:30:08;5.28;;;1.80;;
37647;SDS011;23490;53.656;10.076;2022-12-07T04:32:34;6.50;;;2.05;;
37647;SDS011;23490;53.656;10.076;2022-12-07T04:34:59;5.63;;;2.10;;
37647;SDS011;23490;53.656;10.076;2022-12-07T04:37:24;8.50;;;2.50;;
37647;SDS011;23490;53.656;10.076;2022-12-07T04:39:50;5.85;;;1.75;;
37647;SDS011;23490;53.656;10.076;2022-12-07T04:42:15;4.20;;;2.05;;
37647;SDS011;23490;53.656;10.076;2022-12-07T04:44:41;7.57;;;2.10;;
37647;SDS011;23490;53.656;10.076;2022-12-07T04:47:06;4.93;;;2.20;;
37647;SDS011;23490;53.656;10.076;2022-12-07T04:49:31;5.78;;;2.08;;
37647;SDS011;23490;53.656;10.076;2022-12-07T04:51:57;5.95;;;2.30;;
37647;SDS011;23490;53.656;10.076;2022-12-07T04:54:22;6.15;;;2.65;;
37647;SDS011;23490;53.656;10.076;2022-12-07T04:56:47;10.13;;;2.40;;
37647;SDS011;23490;53.656;10.076;2022-12-07T04:59:14;4.40;;;2.03;;
37647;SDS011;23490;53.656;10.076;2022-12-07T05:01:40;4.38;;;1.90;;
37647;SDS011;23490;53.656;10.076;2022-12-07T05:04:06;5.50;;;2.50;;
37647;SDS011;23490;53.656;10.076;2022-12-07T05:06:31;5.25;;;2.13;;
37647;SDS011;23490;53.656;10.076;2022-12-07T05:08:57;6.85;;;2.35;;
37647;SDS011;23490;53.656;10.076;2022-12-07T05:11:22;8.65;;;2.38;;
37647;SDS011;23490;53.656;10.076;2022-12-07T05:14:04;6.70;;;2.40;;
37647;SDS011;23490;53.656;10.076;2022-12-07T05:16:32;7.00;;;2.45;;
37647;SDS011;23490;53.656;10.076;2022-12-07T05:18:58;5.32;;;2.30;;
37647;SDS011;23490;53.656;10.076;2022-12-07T05:21:23;8.20;;;2.92;;
37647;SDS011;23490;53.656;10.076;2022-12-07T05:23:49;5.35;;;2.42;;
37647;SDS011;23490;53.656;10.076;2022-12-07T05:26:14;8.45;;;2.80;;
37647;SDS011;23490;53.656;10.076;2022-12-07T05:28:40;6.70;;;2.70;;
37647;SDS011;23490;53.656;10.076;2022-12-07T05:31:06;7.35;;;3.15;;
37647;SDS011;23490;53.656;10.076;2022-12-07T05:33:31;5.18;;;2.45;;
37647;SDS011;23490;53.656;10.076;2022-12-07T05:35:56;9.82;;;2.70;;
37647;SDS011;23490;53.656;10.076;2022-12-07T05:38:22;6.95;;;3.53;;
37647;SDS011;23490;53.656;10.076;2022-12-07T05:40:47;6.07;;;3.10;;
37647;SDS011;23490;53.656;10.076;2022-12-07T05:43:13;7.82;;;3.08;;
37647;SDS011;23490;53.656;10.076;2022-12-07T05:45:38;10.60;;;4.50;;
37647;SDS011;23490;53.656;10.076;2022-12-07T05:48:03;10.30;;;3.70;;
37647;SDS011;23490;53.656;10.076;2022-12-07T05:50:29;8.23;;;3.45;;
37647;SDS011;23490;53.656;10.076;2022-12-07T05:52:54;8.85;;;3.60;;
37647;SDS011;23490;53.656;10.076;2022-12-07T05:55:20;10.25;;;3.50;;
37647;SDS011;23490;53.656;10.076;2022-12-07T05:57:45;10.30;;;3.42;;
37647;SDS011;23490;53.656;10.076;2022-12-07T06:00:30;9.35;;;3.60;;
37647;SDS011;23490;53.656;10.076;2022-12-07T06:02:56;8.35;;;3.60;;
37647;SDS011;23490;53.656;10.076;2022-12-07T06:05:22;6.47;;;2.97;;
37647;SDS011;23490;53.656;10.076;2022-12-07T06:07:48;10.93;;;3.80;;
37647;SDS011;23490;53.656;10.076;2022-12-07T06:10:13;6.97;;;3.30;;
37647;SDS011;23490;53.656;10.076;2022-12-07T06:12:39;9.45;;;3.30;;
37647;SDS011;23490;53.656;10.076;2022-12-07T06:15:07;7.88;;;3.50;;
37647;SDS011;23490;53.656;10.076;2022-12-07T06:17:33;8.68;;;3.60;;
37647;SDS011;23490;53.656;10.076;2022-12-07T06:19:58;8.88;;;3.45;;
37647;SDS011;23490;53.656;10.076;2022-12-07T06:22:24;8.15;;;3.42;;
37647;SDS011;23490;53.656;10.076;2022-12-07T06:24:50;12.15;;;4.00;;
37647;SDS011;23490;53.656;10.076;2022-12-07T06:27:15;9.00;;;3.97;;
37647;SDS011;23490;53.656;10.076;2022-12-07T06:29:40;7.68;;;3.38;;
37647;SDS011;23490;53.656;10.076;2022-12-07T06:32:06;8.38;;;3.42;;
37647;SDS011;23490;53.656;10.076;2022-12-07T06:34:31;7.57;;;3.42;;
37647;SDS011;23490;53.656;10.076;2022-12-07T06:36:57;7.25;;;3.40;;
37647;SDS011;23490;53.656;10.076;2022-12-07T06:39:23;9.48;;;3.40;;
37647;SDS011;23490;53.656;10.076;2022-12-07T06:41:50;6.82;;;3.25;;
37647;SDS011;23490;53.656;10.076;2022-12-07T06:44:19;8.77;;;3.10;;
37647;SDS011;23490;53.656;10.076;2022-12-07T06:46:45;9.38;;;3.83;;
37647;SDS011;23490;53.656;10.076;2022-12-07T06:49:11;8.57;;;3.88;;
37647;SDS011;23490;53.656;10.076;2022-12-07T06:51:36;9.38;;;3.50;;
37647;SDS011;23490;53.656;10.076;2022-12-07T06:54:06;8.25;;;3.78;;
37647;SDS011;23490;53.656;10.076;2022-12-07T06:56:32;8.43;;;3.63;;
37647;SDS011;23490;53.656;10.076;2022-12-07T06:58:57;12.07;;;3.90;;
37647;SDS011;23490;53.656;10.076;2022-12-07T07:01:23;8.85;;;3.22;;
37647;SDS011;23490;53.656;10.076;2022-12-07T07:03:48;13.10;;;4.38;;
37647;SDS011;23490;53.656;10.076;2022-12-07T07:06:13;12.27;;;3.67;;
37647;SDS011;23490;53.656;10.076;2022-12-07T07:08:39;8.55;;;3.17;;
37647;SDS011;23490;53.656;10.076;2022-12-07T07:11:06;8.98;;;3.40;;
37647;SDS011;23490;53.656;10.076;2022-12-07T07:13:32;8.10;;;3.78;;
37647;SDS011;23490;53.656;10.076;2022-12-07T07:15:58;13.13;;;3.10;;
37647;SDS011;23490;53.656;10.076;2022-12-07T07:18:23;10.68;;;3.05;;
37647;SDS011;23490;53.656;10.076;2022-12-07T07:20:50;9.52;;;3.40;;
37647;SDS011;23490;53.656;10.076;2022-12-07T07:23:16;6.53;;;2.60;;
37647;SDS011;23490;53.656;10.076;2022-12-07T07:25:41;9.77;;;2.97;;
37647;SDS011;23490;53.656;10.076;2022-12-07T07:28:06;8.88;;;3.45;;
37647;SDS011;23490;53.656;10.076;2022-12-07T07:30:32;8.77;;;2.92;;
37647;SDS011;23490;53.656;10.076;2022-12-07T07:32:58;7.72;;;3.28;;
37647;SDS011;23490;53.656;10.076;2022-12-07T07:35:25;8.35;;;2.80;;
37647;SDS011;23490;53.656;10.076;2022-12-07T07:37:52;8.90;;;2.90;;
37647;SDS011;23490;53.656;10.076;2022-12-07T07:40:17;9.48;;;2.80;;
37647;SDS011;23490;53.656;10.076;2022-12-07T07:42:43;7.07;;;2.28;;
37647;SDS011;23490;53.656;10.076;2022-12-07T07:45:08;6.07;;;2.55;;
37647;SDS011;23490;53.656;10.076;2022-12-07T07:47:34;7.63;;;2.80;;
37647;SDS011;23490;53.656;10.076;2022-12-07T07:49:59;7.30;;;2.33;;
37647;SDS011;23490;53.656;10.076;2022-12-07T07:52:25;7.05;;;2.30;;
37647;SDS011;23490;53.656;10.076;2022-12-07T07:54:51;5.57;;;2.35;;
37647;SDS011;23490;53.656;10.076;2022-12-07T07:57:16;5.68;;;2.20;;
37647;SDS011;23490;53.656;10.076;2022-12-07T07:59:42;3.83;;;1.67;;
37647;SDS011;23490;53.656;10.076;2022-12-07T08:02:14;6.38;;;1.88;;
37647;SDS011;23490;53.656;10.076;2022-12-07T08:04:41;6.75;;;1.73;;
37647;SDS011;23490;53.656;10.076;2022-12-07T08:07:07;11.52;;;2.10;;
37647;SDS011;23490;53.656;10.076;2022-12-07T08:09:32;4.03;;;1.67;;
37647;SDS011;23490;53.656;10.076;2022-12-07T08:11:57;4.57;;;1.73;;
37647;SDS011;23490;53.656;10.076;2022-12-07T08:14:24;10.35;;;2.15;;
37647;SDS011;23490;53.656;10.076;2022-12-07T08:16:49;4.95;;;1.55;;
37647;SDS011;23490;53.656;10.076;2022-12-07T08:19:15;8.98;;;2.13;;
37647;SDS011;23490;53.656;10.076;2022-12-07T08:21:41;6.15;;;1.63;;
37647;SDS011;23490;53.656;10.076;2022-12-07T08:24:07;7.95;;;2.50;;
37647;SDS011;23490;53.656;10.076;2022-12-07T08:26:32;5.82;;;2.20;;
37647;SDS011;23490;53.656;10.076;2022-12-07T08:28:58;6.78;;;1.80;;
37647;SDS011;23490;53.656;10.076;2022-12-07T08:31:24;8.18;;;2.15;;
37647;SDS011;23490;53.656;10.076;2022-12-07T08:33:49;8.38;;;2.00;;
37647;SDS011;23490;53.656;10.076;2022-12-07T08:36:15;5.57;;;1.35;;
37647;SDS011;23490;53.656;10.076;2022-12-07T08:38:41;5.95;;;1.65;;
37647;SDS011;23490;53.656;10.076;2022-12-07T08:41:07;6.88;;;1.73;;
37647;SDS011;23490;53.656;10.076;2022-12-07T08:43:32;8.45;;;1.10;;
37647;SDS011;23490;53.656;10.076;2022-12-07T08:46:41;7.60;;;2.13;;
37647;SDS011;23490;53.656;10.076;2022-12-07T08:49:26;4.97;;;1.42;;
37647;SDS011;23490;53.656;10.076;2022-12-07T08:51:56;6.95;;;1.10;;
37647;SDS011;23490;53.656;10.076;2022-12-07T08:54:22;7.53;;;1.70;;
37647;SDS011;23490;53.656;10.076;2022-12-07T08:56:47;8.07;;;1.60;;
37647;SDS011;23490;53.656;10.076;2022-12-07T08:59:16;6.38;;;1.60;;
37647;SDS011;23490;53.656;10.076;2022-12-07T09:01:43;5.70;;;1.20;;
37647;SDS011;23490;53.656;10.076;2022-12-07T09:04:09;3.03;;;1.10;;
37647;SDS011;23490;53.656;10.076;2022-12-07T09:06:34;7.22;;;1.88;;
37647;SDS011;23490;53.656;10.076;2022-12-07T09:09:00;11.40;;;1.67;;
37647;SDS011;23490;53.656;10.076;2022-12-07T09:11:26;6.20;;;1.35;;
37647;SDS011;23490;53.656;10.076;2022-12-07T09:13:52;6.45;;;1.90;;
37647;SDS011;23490;53.656;10.076;2022-12-07T09:16:17;8.30;;;1.58;;
37647;SDS011;23490;53.656;10.076;2022-12-07T09:18:42;3.63;;;1.25;;
37647;SDS011;23490;53.656;10.076;2022-12-07T09:21:08;8.10;;;1.35;;
37647;SDS011;23490;53.656;10.076;2022-12-07T09:23:34;8.95;;;1.67;;
37647;SDS011;23490;53.656;10.076;2022-12-07T09:26:00;5.38;;;1.25;;
37647;SDS011;23490;53.656;10.076;2022-12-07T09:28:26;17.67;;;2.47;;
37647;SDS011;23490;53.656;10.076;2022-12-07T09:30:51;6.50;;;1.00;;
37647;SDS011;23490;53.656;10.076;2022-12-07T09:33:17;3.22;;;1.10;;
37647;SDS011;23490;53.656;10.076;2022-12-07T09:35:45;5.78;;;1.65;;
37647;SDS011;23490;53.656;10.076;2022-12-07T09:38:11;4.20;;;1.30;;
37647;SDS011;23490;53.656;10.076;2022-12-07T09:40:37;6.57;;;1.08;;
37647;SDS011;23490;53.656;10.076;2022-12-07T09:43:02;5.38;;;1.42;;
37647;SDS011;23490;53.656;10.076;2022-12-07T09:45:35;5.25;;;1.25;;
37647;SDS011;23490;53.656;10.076;2022-12-07T09:48:02;3.88;;;1.00;;
37647;SDS011;23490;53.656;10.076;2022-12-07T09:50:28;6.00;;;1.05;;
37647;SDS011;23490;53.656;10.076;2022-12-07T09:52:56;3.95;;;0.95;;
37647;SDS011;23490;53.656;10.076;2022-12-07T09:55:33;10.75;;;1.73;;
37647;SDS011;23490;53.656;10.076;2022-12-07T09:57:59;6.28;;;1.00;;
37647;SDS011;23490;53.656;10.076;2022-12-07T10:00:24;6.28;;;1.48;;
37647;SDS011;23490;53.656;10.076;2022-12-07T10:02:53;8.68;;;1.92;;
37647;SDS011;23490;53.656;10.076;2022-12-07T10:05:23;3.72;;;1.02;;
37647;SDS011;23490;53.656;10.076;2022-12-07T10:07:52;4.43;;;0.85;;
37647;SDS011;23490;53.656;10.076;2022-12-07T10:10:21;5.60;;;1.23;;
37647;SDS011;23490;53.656;10.076;2022-12-07T10:12:53;5.93;;;1.17;;
37647;SDS011;23490;53.656;10.076;2022-12-07T10:15:20;5.85;;;1.52;;
37647;SDS011;23490;53.656;10.076;2022-12-07T10:17:52;5.00;;;0.95;;
37647;SDS011;23490;53.656;10.076;2022-12-07T10:23:05;6.88;;;1.17;;
37647;SDS011;23490;53.656;10.076;2022-12-07T10:25:38;2.78;;;1.10;;
37647;SDS011;23490;53.656;10.076;2022-12-07T10:30:45;7.63;;;1.40;;
37647;SDS011;23490;53.656;10.076;2022-12-07T10:35:56;5.88;;;1.40;;
37647;SDS011;23490;53.656;10.076;2022-12-07T10:38:23;4.50;;;0.70;;
37647;SDS011;23490;53.656;10.076;2022-12-07T10:41:02;9.38;;;1.30;;
37647;SDS011;23490;53.656;10.076;2022-12-07T10:43:29;4.50;;;1.20;;
37647;SDS011;23490;53.656;10.076;2022-12-07T10:46:09;6.03;;;1.08;;
37647;SDS011;23490;53.656;10.076;2022-12-07T10:51:41;5.32;;;1.70;;
37647;SDS011;23490;53.656;10.076;2022-12-07T10:54:33;8.02;;;1.15;;
37647;SDS011;23490;53.656;10.076;2022-12-07T11:02:57;3.97;;;0.85;;
37647;SDS011;23490;53.656;10.076;2022-12-07T11:05:27;8.50;;;1.23;;
37647;SDS011;23490;53.656;10.076;2022-12-07T11:16:21;4.13;;;1.00;;
37647;SDS011;23490;53.656;10.076;2022-12-07T11:18:56;5.25;;;0.70;;
37647;SDS011;23490;53.656;10.076;2022-12-07T11:24:16;3.15;;;1.00;;
37647;SDS011;23490;53.656;10.076;2022-12-07T11:34:47;4.15;;;0.90;;
37647;SDS011;23490;53.656;10.076;2022-12-07T11:37:32;7.20;;;0.98;;
37647;SDS011;23490;53.656;10.076;2022-12-07T11:40:00;6.88;;;0.93;;
37647;SDS011;23490;53.656;10.076;2022-12-07T11:42:42;7.88;;;1.55;;
37647;SDS011;23490;53.656;10.076;2022-12-07T11:45:19;5.95;;;1.10;;
37647;SDS011;23490;53.656;10.076;2022-12-07T11:48:04;6.93;;;1.45;;
37647;SDS011;23490;53.656;10.076;2022-12-07T11:50:48;7.93;;;0.93;;
37647;SDS011;23490;53.656;10.076;2022-12-07T11:53:20;9.13;;;1.52;;
37647;SDS011;23490;53.656;10.076;2022-12-07T11:55:56;5.28;;;0.73;;
37647;SDS011;23490;53.656;10.076;2022-12-07T12:06:05;6.45;;;1.40;;
37647;SDS011;23490;53.656;10.076;2022-12-07T12:08:33;5.22;;;1.10;;
37647;SDS011;23490;53.656;10.076;2022-12-07T12:11:08;8.02;;;1.25;;
37647;SDS011;23490;53.656;10.076;2022-12-07T12:19:36;7.45;;;1.70;;
37647;SDS011;23490;53.656;10.076;2022-12-07T12:22:14;6.72;;;1.08;;
37647;SDS011;23490;53.656;10.076;2022-12-07T12:24:44;4.88;;;1.40;;
37647;SDS011;23490;53.656;10.076;2022-12-07T12:27:24;6.00;;;1.20;;
37647;SDS011;23490;53.656;10.076;2022-12-07T12:29:55;5.75;;;1.13;;
37647;SDS011;23490;53.656;10.076;2022-12-07T12:32:36;3.60;;;0.88;;
37647;SDS011;23490;53.656;10.076;2022-12-07T12:37:52;4.15;;;0.90;;
37647;SDS011;23490;53.656;10.076;2022-12-07T12:45:23;5.97;;;0.80;;
37647;SDS011;23490;53.656;10.076;2022-12-07T12:47:54;8.52;;;1.58;;
37647;SDS011;23490;53.656;10.076;2022-12-07T12:50:35;5.60;;;1.15;;
37647;SDS011;23490;53.656;10.076;2022-12-07T12:53:14;7.97;;;0.80;;
37647;SDS011;23490;53.656;10.076;2022-12-07T12:55:47;9.35;;;1.65;;
37647;SDS011;23490;53.656;10.076;2022-12-07T12:58:35;7.47;;;1.25;;
37647;SDS011;23490;53.656;10.076;2022-12-07T13:07:13;8.00;;;1.25;;
37647;SDS011;23490;53.656;10.076;2022-12-07T13:10:37;4.72;;;0.93;;
37647;SDS011;23490;53.656;10.076;2022-12-07T13:15:40;6.07;;;1.52;;
37647;SDS011;23490;53.656;10.076;2022-12-07T13:20:51;4.55;;;1.30;;
37647;SDS011;23490;53.656;10.076;2022-12-07T13:26:17;6.05;;;0.70;;
37647;SDS011;23490;53.656;10.076;2022-12-07T13:28:50;6.78;;;1.23;;
37647;SDS011;23490;53.656;10.076;2022-12-07T13:33:54;5.05;;;0.73;;
37647;SDS011;23490;53.656;10.076;2022-12-07T13:36:23;4.35;;;0.82;;
37647;SDS011;23490;53.656;10.076;2022-12-07T13:39:10;2.78;;;0.70;;
37647;SDS011;23490;53.656;10.076;2022-12-07T13:41:43;7.22;;;1.38;;
37647;SDS011;23490;53.656;10.076;2022-12-07T13:44:14;4.03;;;0.80;;
37647;SDS011;23490;53.656;10.076;2022-12-07T13:47:05;2.53;;;0.50;;
37647;SDS011;23490;53.656;10.076;2022-12-07T13:49:32;5.05;;;0.90;;
37647;SDS011;23490;53.656;10.076;2022-12-07T13:52:45;3.20;;;0.50;;
37647;SDS011;23490;53.656;10.076;2022-12-07T13:57:26;3.22;;;0.68;;
37647;SDS011;23490;53.656;10.076;2022-12-07T13:59:53;4.05;;;0.60;;
37647;SDS011;23490;53.656;10.076;2022-12-07T14:02:30;6.72;;;0.90;;
37647;SDS011;23490;53.656;10.076;2022-12-07T14:05:07;3.95;;;0.65;;
37647;SDS011;23490;53.656;10.076;2022-12-07T14:07:52;4.72;;;1.13;;
37647;SDS011;23490;53.656;10.076;2022-12-07T14:10:26;3.13;;;0.65;;
37647;SDS011;23490;53.656;10.076;2022-12-07T14:12:58;3.90;;;0.70;;
37647;SDS011;23490;53.656;10.076;2022-12-07T14:15:28;4.03;;;0.65;;
37647;SDS011;23490;53.656;10.076;2022-12-07T14:17:57;4.28;;;0.75;;
37647;SDS011;23490;53.656;10.076;2022-12-07T14:22:56;3.85;;;0.82;;
37647;SDS011;23490;53.656;10.076;2022-12-07T14:25:22;3.33;;;1.02;;
37647;SDS011;23490;53.656;10.076;2022-12-07T14:27:57;6.18;;;1.40;;
37647;SDS011;23490;53.656;10.076;2022-12-07T14:30:25;4.82;;;1.33;;
37647;SDS011;23490;53.656;10.076;2022-12-07T14:33:04;2.72;;;0.90;;
37647;SDS011;23490;53.656;10.076;2022-12-07T14:35:30;4.80;;;1.20;;
37647;SDS011;23490;53.656;10.076;2022-12-07T14:37:57;3.28;;;0.70;;
37647;SDS011;23490;53.656;10.076;2022-12-07T14:40:24;3.83;;;0.80;;
37647;SDS011;23490;53.656;10.076;2022-12-07T14:42:57;3.45;;;0.98;;
37647;SDS011;23490;53.656;10.076;2022-12-07T14:45:26;6.75;;;1.85;;
37647;SDS011;23490;53.656;10.076;2022-12-07T14:47:52;4.38;;;1.15;;
37647;SDS011;23490;53.656;10.076;2022-12-07T14:50:18;2.80;;;0.88;;
37647;SDS011;23490;53.656;10.076;2022-12-07T14:52:49;7.85;;;1.48;;
37647;SDS011;23490;53.656;10.076;2022-12-07T14:55:22;6.22;;;1.42;;
37647;SDS011;23490;53.656;10.076;2022-12-07T14:57:49;5.72;;;1.10;;
37647;SDS011;23490;53.656;10.076;2022-12-07T15:00:15;5.40;;;0.95;;
37647;SDS011;23490;53.656;10.076;2022-12-07T15:02:42;4.03;;;1.55;;
37647;SDS011;23490;53.656;10.076;2022-12-07T15:05:11;4.63;;;0.70;;
37647;SDS011;23490;53.656;10.076;2022-12-07T15:07:37;5.15;;;0.52;;
37647;SDS011;23490;53.656;10.076;2022-12-07T15:10:02;6.38;;;0.70;;
37647;SDS011;23490;53.656;10.076;2022-12-07T15:12:28;2.95;;;0.60;;
37647;SDS011;23490;53.656;10.076;2022-12-07T15:14:53;2.92;;;0.60;;
37647;SDS011;23490;53.656;10.076;2022-12-07T15:17:19;6.00;;;0.70;;
37647;SDS011;23490;53.656;10.076;2022-12-07T15:19:44;6.57;;;1.10;;
37647;SDS011;23490;53.656;10.076;2022-12-07T15:22:10;4.45;;;0.70;;
37647;SDS011;23490;53.656;10.076;2022-12-07T15:24:36;3.40;;;0.52;;
37647;SDS011;23490;53.656;10.076;2022-12-07T15:27:02;3.00;;;1.25;;
37647;SDS011;23490;53.656;10.076;2022-12-07T15:29:28;2.63;;;0.70;;
37647;SDS011;23490;53.656;10.076;2022-12-07T15:31:53;6.55;;;1.55;;
37647;SDS011;23490;53.656;10.076;2022-12-07T15:34:19;2.88;;;1.00;;
37647;SDS011;23490;53.656;10.076;2022-12-07T15:36:44;1.40;;;0.52;;
37647;SDS011;23490;53.656;10.076;2022-12-07T15:39:10;2.90;;;0.68;;
37647;SDS011;23490;53.656;10.076;2022-12-07T15:41:36;2.72;;;0.80;;
37647;SDS011;23490;53.656;10.076;2022-12-07T15:44:01;3.05;;;0.68;;
37647;SDS011;23490;53.656;10.076;2022-12-07T15:46:45;5.13;;;1.00;;
37647;SDS011;23490;53.656;10.076;2022-12-07T15:49:12;4.60;;;0.98;;
37647;SDS011;23490;53.656;10.076;2022-12-07T15:51:39;2.08;;;0.80;;
37647;SDS011;23490;53.656;10.076;2022-12-07T15:54:05;3.50;;;0.98;;
37647;SDS011;23490;53.656;10.076;2022-12-07T15:56:31;1.75;;;0.60;;
37647;SDS011;23490;53.656;10.076;2022-12-07T15:58:56;4.38;;;0.95;;
37647;SDS011;23490;53.656;10.076;2022-12-07T16:01:22;3.35;;;1.05;;
37647;SDS011;23490;53.656;10.076;2022-12-07T16:03:47;2.33;;;0.88;;
37647;SDS011;23490;53.656;10.076;2022-12-07T16:06:15;3.53;;;0.88;;
37647;SDS011;23490;53.656;10.076;2022-12-07T16:08:42;3.97;;;1.05;;
37647;SDS011;23490;53.656;10.076;2022-12-07T16:11:09;3.70;;;1.33;;
37647;SDS011;23490;53.656;10.076;2022-12-07T16:13:34;4.30;;;1.58;;
37647;SDS011;23490;53.656;10.076;2022-12-07T16:16:03;3.42;;;1.20;;
37647;SDS011;23490;53.656;10.076;2022-12-07T16:18:30;2.50;;;1.10;;
37647;SDS011;23490;53.656;10.076;2022-12-07T16:20:56;3.10;;;1.10;;
37647;SDS011;23490;53.656;10.076;2022-12-07T16:23:21;7.78;;;1.90;;
37647;SDS011;23490;53.656;10.076;2022-12-07T16:25:47;5.80;;;2.58;;
37647;SDS011;23490;53.656;10.076;2022-12-07T16:28:12;7.07;;;2.53;;
37647;SDS011;23490;53.656;10.076;2022-12-07T16:30:37;7.38;;;3.40;;
37647;SDS011;23490;53.656;10.076;2022-12-07T16:33:03;10.55;;;3.33;;
37647;SDS011;23490;53.656;10.076;2022-12-07T16:35:28;6.53;;;2.13;;